Arkadelphia, Arkansas
Current Conditions -  °F | °C
As of 2:56 AM on Friday 31 Oct 2014 (Local Time) from KADF Reporting Station
Clear Clear  
Wind Chill: 48°   Ceiling: Unl
Heat Index: 48°   Visibility: 10mi
Dew Point: 48°   Wind: 0mph
Humidity: 100%   Direction: NA
Pressure: 30.08"   Gusts: NA
Location:  34.12°N, 93.05°W
Report Text: KADF 310756Z AUTO 00000KT 10SM CLR 09/09 A3008 RMK AO2 T00880088 SLP201
Loading
Personal Weather Stations






























Interactive Weather Map
Tropical Storm Tracking
New forecast layout! Learn more

10-Day Weather Forecast

Advertisements
Track Severe Weather on mobile